Marine Rescue Ps-30 — PS-30 — position and weather

sailwx.info

Track history (hours):
 
Tides and Currents Weather Stations Pressure Air Temp Water Temp Dewpoint Dewpoint Depression Visibility Wind Speed Wind Dir Waves Ship Positions

Marine Rescue Ps-30

Last reported at 2018-Jun-16 01:17 UTC. Time now 2018-Jun-18 11:48 UTC.
Position S 32°43' E 152°09'.

Length 9 m.

Type: SAR. MMSI: 503613700.

Date/timePositionNaut miles runAvg speedWind from/ knotsBaromVisibWave heightAir tempDewpointWater temp
2018-Jun-16 01:17S 32°43' E 152°09'0 0.0
2018-Jun-16 01:01S 32°43' E 152°09'510.3
2018-Jun-16 00:31S 32°43' E 152°02'1 0.9
2018-Jun-15 23:49S 32°44' E 152°02'0 0.0
2018-Jun-15 23:30S 32°44' E 152°02'510.4
2018-Jun-15 23:00S 32°43' E 152°09'0 0.0
2018-Jun-15 22:30S 32°43' E 152°09'  
2018-Jun-12 23:44S 32°43' E 152°09'0 0.0
2018-Jun-12 23:31S 32°43' E 152°09'0 0.0
2018-Jun-12 23:00S 32°43' E 152°09'0 0.0
2018-Jun-12 22:31S 32°43' E 152°09'0 0.0
2018-Jun-12 01:56S 32°43' E 152°09'1 3.2
2018-Jun-12 01:31S 32°42' E 152°10'1019.9
2018-Jun-12 00:59S 32°39' E 151°58'0 0.1
2018-Jun-12 00:07S 32°39' E 151°58'214.9
2018-Jun-12 00:00S 32°38' E 151°58'4 7.5
2018-Jun-11 23:31S 32°41' E 151°59'5 9.4
2018-Jun-11 23:00S 32°42' E 152°04'4 7.1
2018-Jun-11 22:30S 32°43' E 152°09'  
2018-Jun-09 01:38S 32°43' E 152°09'0 0.0
2018-Jun-09 01:31S 32°43' E 152°09'0 0.7
2018-Jun-09 01:00S 32°43' E 152°09'3 6.0
2018-Jun-09 00:31S 32°42' E 152°12'4 7.5
2018-Jun-09 00:00S 32°40' E 152°16'4 8.0
2018-Jun-08 23:30S 32°36' E 152°18'4 7.8
2018-Jun-08 23:01S 32°34' E 152°21'510.8
2018-Jun-08 22:30S 32°38' E 152°17'713.3
2018-Jun-08 22:00S 32°42' E 152°11'2 0.1
2018-Jun-08 04:46S 32°43' E 152°09'0 0.0
2018-Jun-08 04:30S 32°43' E 152°09'  
Track history (hours):
 
Tides and Currents Weather Stations Pressure Air Temp Water Temp Dewpoint Dewpoint Depression Visibility Wind Speed Wind Dir Waves Ship Positions

Marine Rescue Ps-30

Last reported at 2018-Jun-16 01:17 UTC. Time now 2018-Jun-18 11:48 UTC.
Position S 32°43' E 152°09'.

Length 9 m.

Type: SAR. MMSI: 503613700.

Date/timePositionNaut miles runAvg speedWind from/ knotsBaromVisibWave heightAir tempDewpointWater temp
2018-Jun-16 01:17S 32°43' E 152°09'0 0.0
2018-Jun-16 01:01S 32°43' E 152°09'510.3
2018-Jun-16 00:31S 32°43' E 152°02'1 0.9
2018-Jun-15 23:49S 32°44' E 152°02'0 0.0
2018-Jun-15 23:30S 32°44' E 152°02'510.4
2018-Jun-15 23:00S 32°43' E 152°09'0 0.0
2018-Jun-15 22:30S 32°43' E 152°09'  
2018-Jun-12 23:44S 32°43' E 152°09'0 0.0
2018-Jun-12 23:31S 32°43' E 152°09'0 0.0
2018-Jun-12 23:00S 32°43' E 152°09'0 0.0
2018-Jun-12 22:31S 32°43' E 152°09'0 0.0
2018-Jun-12 01:56S 32°43' E 152°09'1 3.2
2018-Jun-12 01:31S 32°42' E 152°10'1019.9
2018-Jun-12 00:59S 32°39' E 151°58'0 0.1
2018-Jun-12 00:07S 32°39' E 151°58'214.9
2018-Jun-12 00:00S 32°38' E 151°58'4 7.5
2018-Jun-11 23:31S 32°41' E 151°59'5 9.4
2018-Jun-11 23:00S 32°42' E 152°04'4 7.1
2018-Jun-11 22:30S 32°43' E 152°09'  
2018-Jun-09 01:38S 32°43' E 152°09'0 0.0
2018-Jun-09 01:31S 32°43' E 152°09'0 0.7
2018-Jun-09 01:00S 32°43' E 152°09'3 6.0
2018-Jun-09 00:31S 32°42' E 152°12'4 7.5
2018-Jun-09 00:00S 32°40' E 152°16'4 8.0
2018-Jun-08 23:30S 32°36' E 152°18'4 7.8
2018-Jun-08 23:01S 32°34' E 152°21'510.8
2018-Jun-08 22:30S 32°38' E 152°17'713.3
2018-Jun-08 22:00S 32°42' E 152°11'2 0.1
2018-Jun-08 04:46S 32°43' E 152°09'0 0.0
2018-Jun-08 04:30S 32°43' E 152°09'  

Dump ship's entire track history